sensor_id;sensor_type;location;lat;lon;timestamp;P1;durP1;ratioP1;P2;durP2;ratioP2
26502;SDS011;14177;51.520;6.764;2024-01-27T00:01:43;9.40;;;3.00;;
26502;SDS011;14177;51.520;6.764;2024-01-27T00:04:16;16.23;;;3.33;;
26502;SDS011;14177;51.520;6.764;2024-01-27T00:07:10;9.05;;;2.85;;
26502;SDS011;14177;51.520;6.764;2024-01-27T00:09:48;10.18;;;2.83;;
26502;SDS011;14177;51.520;6.764;2024-01-27T00:12:20;12.30;;;3.47;;
26502;SDS011;14177;51.520;6.764;2024-01-27T00:14:51;13.15;;;2.92;;
26502;SDS011;14177;51.520;6.764;2024-01-27T00:17:50;14.30;;;3.55;;
26502;SDS011;14177;51.520;6.764;2024-01-27T00:20:49;12.60;;;3.15;;
26502;SDS011;14177;51.520;6.764;2024-01-27T00:42:43;18.40;;;3.28;;
26502;SDS011;14177;51.520;6.764;2024-01-27T00:45:20;8.15;;;3.15;;
26502;SDS011;14177;51.520;6.764;2024-01-27T00:48:13;14.02;;;3.17;;
26502;SDS011;14177;51.520;6.764;2024-01-27T00:50:51;14.60;;;3.03;;
26502;SDS011;14177;51.520;6.764;2024-01-27T00:53:43;15.55;;;3.53;;
26502;SDS011;14177;51.520;6.764;2024-01-27T00:56:56;11.25;;;3.00;;
26502;SDS011;14177;51.520;6.764;2024-01-27T00:59:39;12.70;;;3.83;;
26502;SDS011;14177;51.520;6.764;2024-01-27T01:02:08;10.93;;;3.45;;
26502;SDS011;14177;51.520;6.764;2024-01-27T01:04:36;13.50;;;3.42;;
26502;SDS011;14177;51.520;6.764;2024-01-27T01:07:03;9.35;;;3.13;;
26502;SDS011;14177;51.520;6.764;2024-01-27T01:09:30;10.50;;;3.40;;
26502;SDS011;14177;51.520;6.764;2024-01-27T01:11:57;15.63;;;3.70;;
26502;SDS011;14177;51.520;6.764;2024-01-27T01:14:24;11.45;;;3.72;;
26502;SDS011;14177;51.520;6.764;2024-01-27T01:16:51;12.23;;;3.60;;
26502;SDS011;14177;51.520;6.764;2024-01-27T01:19:19;9.98;;;3.20;;
26502;SDS011;14177;51.520;6.764;2024-01-27T01:21:46;11.65;;;3.05;;
26502;SDS011;14177;51.520;6.764;2024-01-27T01:24:13;13.93;;;3.67;;
26502;SDS011;14177;51.520;6.764;2024-01-27T01:26:41;13.00;;;3.67;;
26502;SDS011;14177;51.520;6.764;2024-01-27T01:29:08;16.63;;;3.65;;
26502;SDS011;14177;51.520;6.764;2024-01-27T01:31:34;11.27;;;3.45;;
26502;SDS011;14177;51.520;6.764;2024-01-27T01:34:01;12.65;;;3.42;;
26502;SDS011;14177;51.520;6.764;2024-01-27T01:36:29;11.23;;;3.72;;
26502;SDS011;14177;51.520;6.764;2024-01-27T01:38:56;12.52;;;3.20;;
26502;SDS011;14177;51.520;6.764;2024-01-27T01:41:24;12.80;;;3.42;;
26502;SDS011;14177;51.520;6.764;2024-01-27T01:43:51;14.02;;;3.20;;
26502;SDS011;14177;51.520;6.764;2024-01-27T01:46:18;9.15;;;3.60;;
26502;SDS011;14177;51.520;6.764;2024-01-27T01:48:45;15.82;;;3.97;;
26502;SDS011;14177;51.520;6.764;2024-01-27T01:51:12;12.38;;;3.63;;
26502;SDS011;14177;51.520;6.764;2024-01-27T01:53:40;8.32;;;3.80;;
26502;SDS011;14177;51.520;6.764;2024-01-27T01:56:08;16.30;;;3.58;;
26502;SDS011;14177;51.520;6.764;2024-01-27T01:58:36;11.13;;;3.67;;
26502;SDS011;14177;51.520;6.764;2024-01-27T02:01:03;13.55;;;3.63;;
26502;SDS011;14177;51.520;6.764;2024-01-27T02:03:30;16.77;;;3.75;;
26502;SDS011;14177;51.520;6.764;2024-01-27T02:05:57;7.65;;;2.90;;
26502;SDS011;14177;51.520;6.764;2024-01-27T02:08:24;6.85;;;3.38;;
26502;SDS011;14177;51.520;6.764;2024-01-27T02:10:52;15.43;;;3.95;;
26502;SDS011;14177;51.520;6.764;2024-01-27T02:13:19;9.80;;;3.72;;
26502;SDS011;14177;51.520;6.764;2024-01-27T02:15:49;12.55;;;3.92;;
26502;SDS011;14177;51.520;6.764;2024-01-27T02:18:17;12.48;;;4.65;;
26502;SDS011;14177;51.520;6.764;2024-01-27T02:20:45;12.25;;;3.75;;
26502;SDS011;14177;51.520;6.764;2024-01-27T02:23:12;11.98;;;4.68;;
26502;SDS011;14177;51.520;6.764;2024-01-27T02:25:39;9.32;;;3.40;;
26502;SDS011;14177;51.520;6.764;2024-01-27T02:28:06;12.60;;;3.53;;
26502;SDS011;14177;51.520;6.764;2024-01-27T02:30:34;11.38;;;3.63;;
26502;SDS011;14177;51.520;6.764;2024-01-27T02:33:01;10.30;;;3.42;;
26502;SDS011;14177;51.520;6.764;2024-01-27T02:35:29;13.10;;;4.28;;
26502;SDS011;14177;51.520;6.764;2024-01-27T02:37:56;11.27;;;3.88;;
26502;SDS011;14177;51.520;6.764;2024-01-27T02:40:23;14.88;;;4.38;;
26502;SDS011;14177;51.520;6.764;2024-01-27T02:42:50;7.05;;;3.30;;
26502;SDS011;14177;51.520;6.764;2024-01-27T02:45:17;11.40;;;4.13;;
26502;SDS011;14177;51.520;6.764;2024-01-27T02:47:45;10.15;;;3.80;;
26502;SDS011;14177;51.520;6.764;2024-01-27T02:50:12;11.82;;;3.72;;
26502;SDS011;14177;51.520;6.764;2024-01-27T02:52:39;10.43;;;3.80;;
26502;SDS011;14177;51.520;6.764;2024-01-27T02:55:07;11.23;;;3.75;;
26502;SDS011;14177;51.520;6.764;2024-01-27T02:57:34;11.30;;;3.58;;
26502;SDS011;14177;51.520;6.764;2024-01-27T03:00:01;10.82;;;3.33;;
26502;SDS011;14177;51.520;6.764;2024-01-27T03:02:28;11.68;;;4.00;;
26502;SDS011;14177;51.520;6.764;2024-01-27T03:04:56;8.15;;;4.05;;
26502;SDS011;14177;51.520;6.764;2024-01-27T03:07:23;12.15;;;4.10;;
26502;SDS011;14177;51.520;6.764;2024-01-27T03:09:50;11.63;;;3.17;;
26502;SDS011;14177;51.520;6.764;2024-01-27T03:12:17;13.88;;;4.20;;
26502;SDS011;14177;51.520;6.764;2024-01-27T03:14:44;11.65;;;4.28;;
26502;SDS011;14177;51.520;6.764;2024-01-27T03:17:12;13.48;;;3.97;;
26502;SDS011;14177;51.520;6.764;2024-01-27T03:19:42;9.95;;;3.50;;
26502;SDS011;14177;51.520;6.764;2024-01-27T03:22:13;10.35;;;3.55;;
26502;SDS011;14177;51.520;6.764;2024-01-27T03:24:40;13.52;;;4.78;;
26502;SDS011;14177;51.520;6.764;2024-01-27T03:27:08;12.43;;;3.67;;
26502;SDS011;14177;51.520;6.764;2024-01-27T03:29:35;11.82;;;4.00;;
26502;SDS011;14177;51.520;6.764;2024-01-27T03:32:02;15.10;;;4.47;;
26502;SDS011;14177;51.520;6.764;2024-01-27T03:34:29;13.63;;;4.57;;
26502;SDS011;14177;51.520;6.764;2024-01-27T03:36:56;18.08;;;4.68;;
26502;SDS011;14177;51.520;6.764;2024-01-27T03:39:23;15.63;;;5.32;;
26502;SDS011;14177;51.520;6.764;2024-01-27T03:41:50;20.35;;;4.57;;
26502;SDS011;14177;51.520;6.764;2024-01-27T03:44:18;20.40;;;4.78;;
26502;SDS011;14177;51.520;6.764;2024-01-27T03:46:45;7.55;;;4.43;;
26502;SDS011;14177;51.520;6.764;2024-01-27T03:49:12;10.32;;;4.00;;
26502;SDS011;14177;51.520;6.764;2024-01-27T03:51:39;15.25;;;4.95;;
26502;SDS011;14177;51.520;6.764;2024-01-27T03:54:06;10.98;;;4.78;;
26502;SDS011;14177;51.520;6.764;2024-01-27T03:56:33;9.75;;;4.35;;
26502;SDS011;14177;51.520;6.764;2024-01-27T03:59:00;12.90;;;4.65;;
26502;SDS011;14177;51.520;6.764;2024-01-27T04:01:27;15.63;;;4.75;;
26502;SDS011;14177;51.520;6.764;2024-01-27T04:03:54;12.55;;;4.40;;
26502;SDS011;14177;51.520;6.764;2024-01-27T04:06:21;12.90;;;4.95;;
26502;SDS011;14177;51.520;6.764;2024-01-27T04:08:48;16.58;;;5.07;;
26502;SDS011;14177;51.520;6.764;2024-01-27T04:11:19;19.08;;;6.05;;
26502;SDS011;14177;51.520;6.764;2024-01-27T04:16:17;9.52;;;3.92;;
26502;SDS011;14177;51.520;6.764;2024-01-27T04:18:44;12.20;;;4.78;;
26502;SDS011;14177;51.520;6.764;2024-01-27T04:21:13;18.73;;;5.30;;
26502;SDS011;14177;51.520;6.764;2024-01-27T04:23:40;16.75;;;5.18;;
26502;SDS011;14177;51.520;6.764;2024-01-27T04:26:07;19.63;;;5.15;;
26502;SDS011;14177;51.520;6.764;2024-01-27T04:28:36;18.85;;;5.55;;
26502;SDS011;14177;51.520;6.764;2024-01-27T04:31:03;13.10;;;4.55;;
26502;SDS011;14177;51.520;6.764;2024-01-27T04:33:30;16.90;;;5.95;;
26502;SDS011;14177;51.520;6.764;2024-01-27T04:35:58;17.25;;;5.07;;
26502;SDS011;14177;51.520;6.764;2024-01-27T04:38:25;19.00;;;4.93;;
26502;SDS011;14177;51.520;6.764;2024-01-27T04:40:53;17.63;;;5.80;;
26502;SDS011;14177;51.520;6.764;2024-01-27T04:43:20;17.88;;;4.82;;
26502;SDS011;14177;51.520;6.764;2024-01-27T04:45:47;20.05;;;5.60;;
26502;SDS011;14177;51.520;6.764;2024-01-27T04:48:15;11.45;;;4.65;;
26502;SDS011;14177;51.520;6.764;2024-01-27T04:50:44;13.43;;;4.85;;
26502;SDS011;14177;51.520;6.764;2024-01-27T04:53:11;18.85;;;5.07;;
26502;SDS011;14177;51.520;6.764;2024-01-27T04:55:38;12.20;;;4.88;;
26502;SDS011;14177;51.520;6.764;2024-01-27T04:58:06;22.58;;;5.15;;
26502;SDS011;14177;51.520;6.764;2024-01-27T05:00:34;19.17;;;5.43;;
26502;SDS011;14177;51.520;6.764;2024-01-27T05:03:01;14.57;;;5.15;;
26502;SDS011;14177;51.520;6.764;2024-01-27T05:05:31;9.95;;;4.40;;
26502;SDS011;14177;51.520;6.764;2024-01-27T05:08:02;17.77;;;5.80;;
26502;SDS011;14177;51.520;6.764;2024-01-27T05:10:30;16.58;;;6.03;;
26502;SDS011;14177;51.520;6.764;2024-01-27T05:12:57;15.82;;;5.72;;
26502;SDS011;14177;51.520;6.764;2024-01-27T05:15:24;13.82;;;5.50;;
26502;SDS011;14177;51.520;6.764;2024-01-27T05:17:51;14.55;;;5.72;;
26502;SDS011;14177;51.520;6.764;2024-01-27T05:20:18;16.50;;;6.40;;
26502;SDS011;14177;51.520;6.764;2024-01-27T05:22:45;16.73;;;6.07;;
26502;SDS011;14177;51.520;6.764;2024-01-27T05:25:13;15.57;;;6.22;;
26502;SDS011;14177;51.520;6.764;2024-01-27T05:27:40;14.45;;;5.35;;
26502;SDS011;14177;51.520;6.764;2024-01-27T05:30:07;11.13;;;5.28;;
26502;SDS011;14177;51.520;6.764;2024-01-27T05:32:35;15.07;;;5.95;;
26502;SDS011;14177;51.520;6.764;2024-01-27T05:35:02;15.68;;;6.20;;
26502;SDS011;14177;51.520;6.764;2024-01-27T05:37:31;15.07;;;6.15;;
26502;SDS011;14177;51.520;6.764;2024-01-27T05:39:58;15.63;;;6.70;;
26502;SDS011;14177;51.520;6.764;2024-01-27T05:42:25;18.05;;;5.93;;
26502;SDS011;14177;51.520;6.764;2024-01-27T05:44:52;15.48;;;5.95;;
26502;SDS011;14177;51.520;6.764;2024-01-27T05:47:19;15.55;;;5.97;;
26502;SDS011;14177;51.520;6.764;2024-01-27T05:49:46;14.25;;;5.95;;
26502;SDS011;14177;51.520;6.764;2024-01-27T05:52:14;17.27;;;5.50;;
26502;SDS011;14177;51.520;6.764;2024-01-27T05:54:51;15.27;;;5.90;;
26502;SDS011;14177;51.520;6.764;2024-01-27T05:57:19;14.10;;;5.93;;
26502;SDS011;14177;51.520;6.764;2024-01-27T05:59:47;15.45;;;6.05;;
26502;SDS011;14177;51.520;6.764;2024-01-27T06:02:13;16.00;;;6.68;;
26502;SDS011;14177;51.520;6.764;2024-01-27T06:04:40;22.65;;;6.57;;
26502;SDS011;14177;51.520;6.764;2024-01-27T06:07:08;15.88;;;7.18;;
26502;SDS011;14177;51.520;6.764;2024-01-27T06:09:36;16.27;;;6.93;;
26502;SDS011;14177;51.520;6.764;2024-01-27T06:12:04;26.35;;;7.32;;
26502;SDS011;14177;51.520;6.764;2024-01-27T06:14:32;19.85;;;6.55;;
26502;SDS011;14177;51.520;6.764;2024-01-27T06:16:59;17.77;;;6.75;;
26502;SDS011;14177;51.520;6.764;2024-01-27T06:19:29;13.77;;;6.20;;
26502;SDS011;14177;51.520;6.764;2024-01-27T06:21:56;14.90;;;6.30;;
26502;SDS011;14177;51.520;6.764;2024-01-27T06:24:23;15.32;;;6.40;;
26502;SDS011;14177;51.520;6.764;2024-01-27T06:26:50;16.73;;;6.50;;
26502;SDS011;14177;51.520;6.764;2024-01-27T06:29:17;18.98;;;6.47;;
26502;SDS011;14177;51.520;6.764;2024-01-27T06:31:45;18.90;;;6.07;;
26502;SDS011;14177;51.520;6.764;2024-01-27T06:34:12;20.05;;;6.65;;
26502;SDS011;14177;51.520;6.764;2024-01-27T06:36:39;17.38;;;5.38;;
26502;SDS011;14177;51.520;6.764;2024-01-27T06:39:06;14.32;;;5.38;;
26502;SDS011;14177;51.520;6.764;2024-01-27T06:41:34;22.00;;;5.80;;
26502;SDS011;14177;51.520;6.764;2024-01-27T06:44:01;19.70;;;6.28;;
26502;SDS011;14177;51.520;6.764;2024-01-27T06:46:29;18.80;;;6.68;;
26502;SDS011;14177;51.520;6.764;2024-01-27T06:48:56;20.65;;;8.43;;
26502;SDS011;14177;51.520;6.764;2024-01-27T06:51:23;17.20;;;5.45;;
26502;SDS011;14177;51.520;6.764;2024-01-27T06:53:50;17.88;;;6.07;;
26502;SDS011;14177;51.520;6.764;2024-01-27T06:56:17;19.48;;;6.18;;
26502;SDS011;14177;51.520;6.764;2024-01-27T06:58:44;22.65;;;6.43;;
26502;SDS011;14177;51.520;6.764;2024-01-27T07:01:11;15.98;;;5.30;;
26502;SDS011;14177;51.520;6.764;2024-01-27T07:03:38;14.15;;;5.72;;
26502;SDS011;14177;51.520;6.764;2024-01-27T07:06:06;20.88;;;5.80;;
26502;SDS011;14177;51.520;6.764;2024-01-27T07:08:33;15.57;;;6.05;;
26502;SDS011;14177;51.520;6.764;2024-01-27T07:11:04;10.25;;;5.68;;
26502;SDS011;14177;51.520;6.764;2024-01-27T07:13:32;19.58;;;5.30;;
26502;SDS011;14177;51.520;6.764;2024-01-27T07:15:59;12.98;;;4.97;;
26502;SDS011;14177;51.520;6.764;2024-01-27T07:18:27;15.82;;;5.10;;
26502;SDS011;14177;51.520;6.764;2024-01-27T07:20:55;22.38;;;7.13;;
26502;SDS011;14177;51.520;6.764;2024-01-27T07:23:25;13.85;;;5.53;;
26502;SDS011;14177;51.520;6.764;2024-01-27T07:25:52;16.40;;;5.35;;
26502;SDS011;14177;51.520;6.764;2024-01-27T07:28:19;14.60;;;5.47;;
26502;SDS011;14177;51.520;6.764;2024-01-27T07:30:47;18.42;;;6.20;;
26502;SDS011;14177;51.520;6.764;2024-01-27T07:33:14;14.38;;;5.55;;
26502;SDS011;14177;51.520;6.764;2024-01-27T07:35:41;27.33;;;8.18;;
26502;SDS011;14177;51.520;6.764;2024-01-27T07:38:07;20.75;;;8.55;;
26502;SDS011;14177;51.520;6.764;2024-01-27T07:40:35;25.58;;;9.40;;
26502;SDS011;14177;51.520;6.764;2024-01-27T07:43:02;22.60;;;8.02;;
26502;SDS011;14177;51.520;6.764;2024-01-27T07:45:29;15.93;;;8.02;;
26502;SDS011;14177;51.520;6.764;2024-01-27T07:47:56;21.90;;;9.45;;
26502;SDS011;14177;51.520;6.764;2024-01-27T07:50:27;22.73;;;8.60;;
26502;SDS011;14177;51.520;6.764;2024-01-27T07:52:54;26.25;;;9.00;;
26502;SDS011;14177;51.520;6.764;2024-01-27T07:55:21;24.20;;;9.32;;
26502;SDS011;14177;51.520;6.764;2024-01-27T07:57:48;30.35;;;9.52;;
26502;SDS011;14177;51.520;6.764;2024-01-27T08:00:15;26.60;;;9.32;;
26502;SDS011;14177;51.520;6.764;2024-01-27T08:02:43;22.63;;;7.93;;
26502;SDS011;14177;51.520;6.764;2024-01-27T08:05:10;25.50;;;8.75;;
26502;SDS011;14177;51.520;6.764;2024-01-27T08:07:37;26.27;;;9.65;;
26502;SDS011;14177;51.520;6.764;2024-01-27T08:10:04;21.08;;;8.48;;
26502;SDS011;14177;51.520;6.764;2024-01-27T08:12:32;23.27;;;8.35;;
26502;SDS011;14177;51.520;6.764;2024-01-27T08:14:59;18.75;;;6.60;;
26502;SDS011;14177;51.520;6.764;2024-01-27T08:17:26;18.65;;;6.90;;
26502;SDS011;14177;51.520;6.764;2024-01-27T08:19:53;27.42;;;8.13;;
26502;SDS011;14177;51.520;6.764;2024-01-27T08:22:20;18.92;;;8.40;;
26502;SDS011;14177;51.520;6.764;2024-01-27T08:24:47;22.85;;;8.13;;
26502;SDS011;14177;51.520;6.764;2024-01-27T08:27:14;19.15;;;7.30;;
26502;SDS011;14177;51.520;6.764;2024-01-27T08:29:42;20.58;;;8.02;;
26502;SDS011;14177;51.520;6.764;2024-01-27T08:32:08;20.27;;;7.00;;
26502;SDS011;14177;51.520;6.764;2024-01-27T08:34:36;28.30;;;7.30;;
26502;SDS011;14177;51.520;6.764;2024-01-27T08:37:13;17.20;;;6.50;;
26502;SDS011;14177;51.520;6.764;2024-01-27T08:39:45;16.83;;;6.57;;
26502;SDS011;14177;51.520;6.764;2024-01-27T08:42:13;19.85;;;7.28;;
26502;SDS011;14177;51.520;6.764;2024-01-27T08:44:40;21.33;;;6.65;;
26502;SDS011;14177;51.520;6.764;2024-01-27T08:47:07;23.35;;;6.32;;
26502;SDS011;14177;51.520;6.764;2024-01-27T08:49:34;18.67;;;5.30;;
26502;SDS011;14177;51.520;6.764;2024-01-27T08:52:02;16.98;;;6.03;;
26502;SDS011;14177;51.520;6.764;2024-01-27T08:54:29;18.17;;;5.82;;
26502;SDS011;14177;51.520;6.764;2024-01-27T08:56:57;17.50;;;6.30;;
26502;SDS011;14177;51.520;6.764;2024-01-27T08:59:24;16.00;;;5.93;;
26502;SDS011;14177;51.520;6.764;2024-01-27T09:01:51;25.52;;;5.90;;
26502;SDS011;14177;51.520;6.764;2024-01-27T09:04:18;17.95;;;6.57;;
26502;SDS011;14177;51.520;6.764;2024-01-27T09:06:45;15.23;;;6.47;;
26502;SDS011;14177;51.520;6.764;2024-01-27T09:09:12;16.63;;;5.90;;
26502;SDS011;14177;51.520;6.764;2024-01-27T09:11:40;18.73;;;6.18;;
26502;SDS011;14177;51.520;6.764;2024-01-27T09:14:07;16.08;;;6.55;;
26502;SDS011;14177;51.520;6.764;2024-01-27T09:16:34;18.13;;;6.55;;
26502;SDS011;14177;51.520;6.764;2024-01-27T09:19:01;18.88;;;6.10;;
26502;SDS011;14177;51.520;6.764;2024-01-27T09:21:28;19.98;;;7.15;;
26502;SDS011;14177;51.520;6.764;2024-01-27T09:23:57;21.48;;;6.13;;
26502;SDS011;14177;51.520;6.764;2024-01-27T09:26:25;24.65;;;7.53;;
26502;SDS011;14177;51.520;6.764;2024-01-27T09:28:52;16.38;;;6.18;;
26502;SDS011;14177;51.520;6.764;2024-01-27T09:31:22;19.67;;;5.40;;
26502;SDS011;14177;51.520;6.764;2024-01-27T09:33:50;16.00;;;5.20;;
26502;SDS011;14177;51.520;6.764;2024-01-27T09:36:20;23.33;;;5.90;;
26502;SDS011;14177;51.520;6.764;2024-01-27T09:38:47;14.55;;;5.75;;
26502;SDS011;14177;51.520;6.764;2024-01-27T09:41:14;14.23;;;5.13;;
26502;SDS011;14177;51.520;6.764;2024-01-27T09:43:42;20.67;;;5.93;;
26502;SDS011;14177;51.520;6.764;2024-01-27T09:46:12;12.85;;;5.35;;
26502;SDS011;14177;51.520;6.764;2024-01-27T09:48:40;15.15;;;5.50;;
26502;SDS011;14177;51.520;6.764;2024-01-27T09:51:09;21.90;;;5.10;;
26502;SDS011;14177;51.520;6.764;2024-01-27T09:53:37;18.00;;;5.55;;
26502;SDS011;14177;51.520;6.764;2024-01-27T09:56:04;23.58;;;6.53;;
26502;SDS011;14177;51.520;6.764;2024-01-27T09:58:34;25.98;;;7.18;;
26502;SDS011;14177;51.520;6.764;2024-01-27T10:01:03;18.52;;;6.32;;
26502;SDS011;14177;51.520;6.764;2024-01-27T10:03:55;20.23;;;6.43;;
26502;SDS011;14177;51.520;6.764;2024-01-27T10:06:48;21.67;;;8.13;;
26502;SDS011;14177;51.520;6.764;2024-01-27T10:09:23;17.27;;;6.50;;
26502;SDS011;14177;51.520;6.764;2024-01-27T10:12:12;19.27;;;6.45;;
26502;SDS011;14177;51.520;6.764;2024-01-27T10:19:04;19.75;;;6.35;;
26502;SDS011;14177;51.520;6.764;2024-01-27T10:22:00;17.77;;;5.93;;
26502;SDS011;14177;51.520;6.764;2024-01-27T10:44:27;23.38;;;6.22;;
26502;SDS011;14177;51.520;6.764;2024-01-27T10:46:56;19.52;;;5.72;;
26502;SDS011;14177;51.520;6.764;2024-01-27T10:49:28;19.65;;;6.78;;
26502;SDS011;14177;51.520;6.764;2024-01-27T10:52:06;18.23;;;5.75;;
26502;SDS011;14177;51.520;6.764;2024-01-27T10:54:40;19.55;;;6.57;;
26502;SDS011;14177;51.520;6.764;2024-01-27T10:57:09;26.02;;;6.75;;
26502;SDS011;14177;51.520;6.764;2024-01-27T10:59:38;21.20;;;7.55;;
26502;SDS011;14177;51.520;6.764;2024-01-27T11:02:08;20.77;;;6.78;;
26502;SDS011;14177;51.520;6.764;2024-01-27T11:04:40;22.02;;;7.00;;
26502;SDS011;14177;51.520;6.764;2024-01-27T11:07:09;24.45;;;6.70;;
26502;SDS011;14177;51.520;6.764;2024-01-27T11:09:36;20.40;;;5.88;;
26502;SDS011;14177;51.520;6.764;2024-01-27T11:12:05;21.55;;;6.05;;
26502;SDS011;14177;51.520;6.764;2024-01-27T11:14:34;18.00;;;5.72;;
26502;SDS011;14177;51.520;6.764;2024-01-27T11:17:02;23.00;;;6.03;;
26502;SDS011;14177;51.520;6.764;2024-01-27T11:19:29;18.10;;;6.20;;
26502;SDS011;14177;51.520;6.764;2024-01-27T11:22:03;19.92;;;6.72;;
26502;SDS011;14177;51.520;6.764;2024-01-27T11:24:30;20.77;;;7.05;;
26502;SDS011;14177;51.520;6.764;2024-01-27T11:27:01;14.48;;;6.10;;
26502;SDS011;14177;51.520;6.764;2024-01-27T11:29:30;18.35;;;6.20;;
26502;SDS011;14177;51.520;6.764;2024-01-27T11:32:03;19.48;;;5.68;;
26502;SDS011;14177;51.520;6.764;2024-01-27T11:39:34;11.80;;;3.65;;
26502;SDS011;14177;51.520;6.764;2024-01-27T11:42:08;17.33;;;4.15;;
26502;SDS011;14177;51.520;6.764;2024-01-27T11:45:09;18.45;;;5.10;;
26502;SDS011;14177;51.520;6.764;2024-01-27T11:47:48;15.90;;;4.22;;
26502;SDS011;14177;51.520;6.764;2024-01-27T11:50:31;22.08;;;5.35;;
26502;SDS011;14177;51.520;6.764;2024-01-27T11:52:58;18.58;;;4.57;;
26502;SDS011;14177;51.520;6.764;2024-01-27T11:55:26;15.60;;;4.28;;
26502;SDS011;14177;51.520;6.764;2024-01-27T11:57:53;15.20;;;4.35;;
26502;SDS011;14177;51.520;6.764;2024-01-27T12:00:20;14.75;;;4.05;;
26502;SDS011;14177;51.520;6.764;2024-01-27T12:02:50;19.80;;;4.47;;
26502;SDS011;14177;51.520;6.764;2024-01-27T12:05:18;14.20;;;4.05;;
26502;SDS011;14177;51.520;6.764;2024-01-27T12:07:45;12.50;;;4.30;;
26502;SDS011;14177;51.520;6.764;2024-01-27T12:10:16;17.77;;;3.83;;
26502;SDS011;14177;51.520;6.764;2024-01-27T12:12:52;15.95;;;5.07;;
26502;SDS011;14177;51.520;6.764;2024-01-27T12:15:27;16.40;;;4.88;;
26502;SDS011;14177;51.520;6.764;2024-01-27T12:19:05;18.52;;;4.95;;
26502;SDS011;14177;51.520;6.764;2024-01-27T12:25:15;13.77;;;4.03;;
26502;SDS011;14177;51.520;6.764;2024-01-27T12:31:43;17.55;;;4.05;;
26502;SDS011;14177;51.520;6.764;2024-01-27T12:34:48;13.02;;;2.83;;
26502;SDS011;14177;51.520;6.764;2024-01-27T12:37:34;17.50;;;3.75;;
26502;SDS011;14177;51.520;6.764;2024-01-27T12:43:49;10.75;;;3.65;;
26502;SDS011;14177;51.520;6.764;2024-01-27T12:56:23;19.80;;;3.28;;
26502;SDS011;14177;51.520;6.764;2024-01-27T12:59:17;13.15;;;3.35;;
26502;SDS011;14177;51.520;6.764;2024-01-27T13:02:53;15.10;;;3.03;;
26502;SDS011;14177;51.520;6.764;2024-01-27T13:05:28;10.85;;;2.67;;
26502;SDS011;14177;51.520;6.764;2024-01-27T13:08:11;12.63;;;3.42;;
26502;SDS011;14177;51.520;6.764;2024-01-27T13:10:50;14.63;;;3.88;;
26502;SDS011;14177;51.520;6.764;2024-01-27T13:13:23;16.13;;;3.50;;
26502;SDS011;14177;51.520;6.764;2024-01-27T13:16:02;17.92;;;3.80;;
26502;SDS011;14177;51.520;6.764;2024-01-27T13:18:29;13.75;;;2.97;;
26502;SDS011;14177;51.520;6.764;2024-01-27T13:20:57;12.85;;;3.30;;
26502;SDS011;14177;51.520;6.764;2024-01-27T13:23:24;13.93;;;3.40;;
26502;SDS011;14177;51.520;6.764;2024-01-27T13:25:54;14.88;;;3.08;;
26502;SDS011;14177;51.520;6.764;2024-01-27T13:28:40;13.02;;;2.50;;
26502;SDS011;14177;51.520;6.764;2024-01-27T13:31:08;15.15;;;3.72;;
26502;SDS011;14177;51.520;6.764;2024-01-27T13:33:35;12.95;;;3.17;;
26502;SDS011;14177;51.520;6.764;2024-01-27T13:36:02;9.77;;;2.50;;
26502;SDS011;14177;51.520;6.764;2024-01-27T13:38:30;10.98;;;2.65;;
26502;SDS011;14177;51.520;6.764;2024-01-27T13:40:57;10.13;;;3.22;;
26502;SDS011;14177;51.520;6.764;2024-01-27T13:43:24;14.38;;;2.78;;
26502;SDS011;14177;51.520;6.764;2024-01-27T13:45:51;14.45;;;2.97;;
26502;SDS011;14177;51.520;6.764;2024-01-27T13:48:21;8.63;;;2.47;;
26502;SDS011;14177;51.520;6.764;2024-01-27T13:50:48;14.80;;;2.90;;
26502;SDS011;14177;51.520;6.764;2024-01-27T13:53:15;13.60;;;2.90;;
26502;SDS011;14177;51.520;6.764;2024-01-27T13:55:42;13.82;;;2.70;;
26502;SDS011;14177;51.520;6.764;2024-01-27T13:58:10;10.38;;;3.00;;
26502;SDS011;14177;51.520;6.764;2024-01-27T14:00:37;15.07;;;3.50;;
26502;SDS011;14177;51.520;6.764;2024-01-27T14:03:05;8.88;;;2.45;;
26502;SDS011;14177;51.520;6.764;2024-01-27T14:05:32;14.93;;;3.20;;
26502;SDS011;14177;51.520;6.764;2024-01-27T14:07:59;9.93;;;3.28;;
26502;SDS011;14177;51.520;6.764;2024-01-27T14:10:26;7.18;;;2.50;;
26502;SDS011;14177;51.520;6.764;2024-01-27T14:12:53;8.63;;;2.55;;
26502;SDS011;14177;51.520;6.764;2024-01-27T14:15:20;9.63;;;2.85;;
26502;SDS011;14177;51.520;6.764;2024-01-27T14:17:47;12.95;;;3.05;;
26502;SDS011;14177;51.520;6.764;2024-01-27T14:20:15;11.07;;;3.35;;
26502;SDS011;14177;51.520;6.764;2024-01-27T14:22:43;10.68;;;3.22;;
26502;SDS011;14177;51.520;6.764;2024-01-27T14:25:10;14.20;;;3.63;;
26502;SDS011;14177;51.520;6.764;2024-01-27T14:27:38;11.30;;;3.65;;
26502;SDS011;14177;51.520;6.764;2024-01-27T14:30:05;11.48;;;2.92;;
26502;SDS011;14177;51.520;6.764;2024-01-27T14:32:33;10.35;;;3.17;;
26502;SDS011;14177;51.520;6.764;2024-01-27T14:35:01;12.55;;;3.03;;
26502;SDS011;14177;51.520;6.764;2024-01-27T14:37:41;14.82;;;3.40;;
26502;SDS011;14177;51.520;6.764;2024-01-27T14:45:36;14.93;;;2.42;;
26502;SDS011;14177;51.520;6.764;2024-01-27T14:48:27;9.07;;;2.83;;
26502;SDS011;14177;51.520;6.764;2024-01-27T14:50:57;10.07;;;2.83;;
26502;SDS011;14177;51.520;6.764;2024-01-27T14:53:29;11.35;;;2.97;;
26502;SDS011;14177;51.520;6.764;2024-01-27T15:06:20;11.70;;;3.08;;
26502;SDS011;14177;51.520;6.764;2024-01-27T15:12:15;12.68;;;5.18;;
26502;SDS011;14177;51.520;6.764;2024-01-27T15:14:55;11.35;;;3.42;;
26502;SDS011;14177;51.520;6.764;2024-01-27T15:52:13;15.38;;;6.93;;
26502;SDS011;14177;51.520;6.764;2024-01-27T15:54:53;12.95;;;5.20;;
26502;SDS011;14177;51.520;6.764;2024-01-27T16:02:33;16.67;;;6.00;;
26502;SDS011;14177;51.520;6.764;2024-01-27T16:10:19;13.63;;;4.78;;
26502;SDS011;14177;51.520;6.764;2024-01-27T16:13:28;15.80;;;4.40;;
26502;SDS011;14177;51.520;6.764;2024-01-27T16:16:14;16.83;;;3.92;;
26502;SDS011;14177;51.520;6.764;2024-01-27T16:19:02;12.35;;;3.85;;
26502;SDS011;14177;51.520;6.764;2024-01-27T16:21:46;17.38;;;4.10;;
26502;SDS011;14177;51.520;6.764;2024-01-27T16:24:45;6.53;;;3.05;;
26502;SDS011;14177;51.520;6.764;2024-01-27T16:27:17;16.20;;;4.20;;
26502;SDS011;14177;51.520;6.764;2024-01-27T16:30:01;8.77;;;3.33;;
26502;SDS011;14177;51.520;6.764;2024-01-27T16:32:30;14.50;;;3.72;;
26502;SDS011;14177;51.520;6.764;2024-01-27T16:35:09;8.05;;;3.15;;
26502;SDS011;14177;51.520;6.764;2024-01-27T16:37:41;12.93;;;3.13;;
26502;SDS011;14177;51.520;6.764;2024-01-27T16:40:09;13.02;;;3.40;;
26502;SDS011;14177;51.520;6.764;2024-01-27T16:42:38;18.55;;;3.72;;
26502;SDS011;14177;51.520;6.764;2024-01-27T16:45:06;15.55;;;3.65;;
26502;SDS011;14177;51.520;6.764;2024-01-27T16:47:36;16.05;;;3.45;;
26502;SDS011;14177;51.520;6.764;2024-01-27T16:50:05;14.90;;;4.07;;
26502;SDS011;14177;51.520;6.764;2024-01-27T16:52:55;13.32;;;4.00;;
26502;SDS011;14177;51.520;6.764;2024-01-27T16:55:23;8.55;;;4.00;;
26502;SDS011;14177;51.520;6.764;2024-01-27T16:57:52;17.52;;;4.85;;
26502;SDS011;14177;51.520;6.764;2024-01-27T17:04:45;18.50;;;5.78;;
26502;SDS011;14177;51.520;6.764;2024-01-27T17:07:16;20.13;;;7.88;;
26502;SDS011;14177;51.520;6.764;2024-01-27T17:13:41;22.77;;;7.82;;
26502;SDS011;14177;51.520;6.764;2024-01-27T17:34:56;24.38;;;9.57;;
26502;SDS011;14177;51.520;6.764;2024-01-27T17:37:31;20.65;;;8.73;;
26502;SDS011;14177;51.520;6.764;2024-01-27T17:40:38;19.02;;;8.20;;